Corryton, Tennessee
Current Conditions -  °F | °C
As of 12:55 PM on Tuesday 21 Oct 2014 (Local Time) from KMOR Reporting Station
Few Clouds Few Clouds  
Wind Chill: 64°   Ceiling: Unl
Heat Index: 64°   Visibility: 10mi
Dew Point: 45°   Wind: 13mph
Humidity: 49%   Direction: 280°W
Pressure: 30.02"   Gusts: NA
Location:  36.15°N, 83.78°W
Report Text: KMOR 211655Z AUTO 28011KT 10SM FEW050 18/07 A3002 RMK
Loading
Personal Weather Stations






























Interactive Weather Map
Tropical Storm Tracking
New forecast layout! Learn more

10-Day Weather Forecast

Advertisements
Track Severe Weather on mobile